createdAt,value
2017-10-13T00:01:17.117Z,14.17
2017-10-13T00:03:45.383Z,9.27
2017-10-13T00:06:14.392Z,16.27
2017-10-13T00:08:42.637Z,7.37
2017-10-13T00:11:11.385Z,18.50
2017-10-13T00:13:39.638Z,11.60
2017-10-13T00:16:07.880Z,14.90
2017-10-13T00:18:36.150Z,10.90
2017-10-13T00:21:04.394Z,9.50
2017-10-13T00:23:32.654Z,12.00
2017-10-13T00:26:00.925Z,7.10
2017-10-13T00:28:29.179Z,10.07
2017-10-13T00:30:57.426Z,12.10
2017-10-13T00:33:25.795Z,12.33
2017-10-13T00:35:54.041Z,10.70
2017-10-13T00:38:22.288Z,10.50
2017-10-13T00:40:51.323Z,13.60
2017-10-13T00:43:19.570Z,9.30
2017-10-13T00:45:47.894Z,9.53
2017-10-13T00:48:16.138Z,11.93
2017-10-13T00:50:44.386Z,11.50
2017-10-13T00:53:13.442Z,7.90
2017-10-13T00:55:42.210Z,10.13
2017-10-13T00:58:10.509Z,8.40
2017-10-13T01:00:39.032Z,14.70
2017-10-13T01:03:08.061Z,17.73
2017-10-13T01:05:36.314Z,9.40
2017-10-13T01:08:04.559Z,10.20
2017-10-13T01:10:32.830Z,10.03
2017-10-13T01:13:01.074Z,11.00
2017-10-13T01:15:29.674Z,16.77
2017-10-13T01:17:58.093Z,11.10
2017-10-13T01:20:27.106Z,9.17
2017-10-13T01:22:55.344Z,8.53
2017-10-13T01:25:23.606Z,9.07
2017-10-13T01:27:52.466Z,6.90
2017-10-13T01:30:20.707Z,18.43
2017-10-13T01:32:49.741Z,12.30
2017-10-13T01:35:17.993Z,8.77
2017-10-13T01:37:46.241Z,21.50
2017-10-13T01:40:14.590Z,7.20
2017-10-13T01:42:42.834Z,10.57
2017-10-13T01:45:11.073Z,7.70
2017-10-13T01:47:39.342Z,9.77
2017-10-13T01:50:07.582Z,7.60
2017-10-13T01:52:35.814Z,7.83
2017-10-13T01:55:04.846Z,7.37
2017-10-13T01:57:33.089Z,10.57
2017-10-13T02:00:01.339Z,10.77
2017-10-13T02:02:30.029Z,19.83
2017-10-13T02:04:58.281Z,8.43
2017-10-13T02:07:26.520Z,9.00
2017-10-13T02:09:54.777Z,9.23
2017-10-13T02:12:23.798Z,12.80
2017-10-13T02:14:52.037Z,15.30
2017-10-13T02:17:20.318Z,18.73
2017-10-13T02:19:48.571Z,14.63
2017-10-13T02:22:16.813Z,11.00
2017-10-13T02:24:45.417Z,9.27
2017-10-13T02:27:13.735Z,10.67
2017-10-13T02:29:42.757Z,13.57
2017-10-13T02:32:11.030Z,8.73
2017-10-13T02:34:39.275Z,18.50
2017-10-13T02:37:07.518Z,9.03
2017-10-13T02:39:35.789Z,10.93
2017-10-13T02:42:04.041Z,14.60
2017-10-13T02:44:32.301Z,16.10
2017-10-13T02:47:02.039Z,15.60
2017-10-13T02:49:30.278Z,9.20
2017-10-13T02:51:59.294Z,16.17
2017-10-13T02:54:27.570Z,17.60
2017-10-13T02:56:55.813Z,18.67
2017-10-13T02:59:24.841Z,12.40
2017-10-13T03:01:53.114Z,13.67
2017-10-13T03:04:21.882Z,10.23
2017-10-13T03:06:50.908Z,11.63
2017-10-13T03:09:19.366Z,9.20
2017-10-13T03:11:47.606Z,9.70
2017-10-13T03:14:15.846Z,14.70
2017-10-13T03:16:44.115Z,10.60
2017-10-13T03:19:12.362Z,20.23
2017-10-13T03:21:41.375Z,12.60
2017-10-13T03:24:09.642Z,11.53
2017-10-13T03:26:37.889Z,17.17
2017-10-13T03:29:06.146Z,15.83
2017-10-13T03:31:34.475Z,10.93
2017-10-13T03:34:02.730Z,17.33
2017-10-13T03:36:30.978Z,11.50
2017-10-13T03:38:59.249Z,15.40
2017-10-13T03:41:27.502Z,22.90
2017-10-13T03:43:55.756Z,19.27
2017-10-13T03:46:24.032Z,11.97
2017-10-13T03:48:52.277Z,11.63
2017-10-13T03:51:20.533Z,13.80
2017-10-13T03:53:49.202Z,17.63
2017-10-13T03:56:17.450Z,18.40
2017-10-13T03:58:45.712Z,16.03
2017-10-13T04:01:13.987Z,13.77
2017-10-13T04:03:43.011Z,22.03
2017-10-13T04:06:11.367Z,12.93
2017-10-13T04:08:40.426Z,13.63
2017-10-13T04:11:08.705Z,22.70
2017-10-13T04:13:36.963Z,21.20
2017-10-13T04:16:05.326Z,15.00
2017-10-13T04:18:33.588Z,20.23
2017-10-13T04:21:01.830Z,17.07
2017-10-13T04:23:30.102Z,18.83
2017-10-13T04:25:58.354Z,20.90
2017-10-13T04:28:26.605Z,15.23
2017-10-13T04:30:56.067Z,17.17
2017-10-13T04:33:25.098Z,13.67
2017-10-13T04:35:53.347Z,18.83
2017-10-13T04:38:22.795Z,15.20
2017-10-13T04:40:51.041Z,17.73
2017-10-13T04:43:19.362Z,20.80
2017-10-13T04:45:47.879Z,13.60
2017-10-13T04:48:16.897Z,17.17
2017-10-13T04:50:45.297Z,15.90
2017-10-13T04:53:13.562Z,17.20
2017-10-13T04:55:41.815Z,19.73
2017-10-13T04:58:10.869Z,15.07
2017-10-13T05:00:39.314Z,13.87
2017-10-13T05:03:07.559Z,14.20
2017-10-13T05:05:35.814Z,17.87
2017-10-13T05:08:04.558Z,14.37
2017-10-13T05:10:32.805Z,14.67
2017-10-13T05:13:01.823Z,17.13
2017-10-13T05:15:30.102Z,20.20
2017-10-13T05:17:58.347Z,23.63
2017-10-13T05:20:27.374Z,18.23
2017-10-13T05:22:56.082Z,19.27
2017-10-13T05:25:24.330Z,18.50
2017-10-13T05:27:52.582Z,22.13
2017-10-13T05:30:20.858Z,22.70
2017-10-13T05:32:49.874Z,22.03
2017-10-13T05:35:18.133Z,20.30
2017-10-13T05:37:47.179Z,22.13
2017-10-13T05:40:15.429Z,15.83
2017-10-13T05:42:43.678Z,19.03
2017-10-13T05:45:13.023Z,18.60
2017-10-13T05:47:41.278Z,30.50
2017-10-13T05:50:09.573Z,20.27
2017-10-13T05:52:37.839Z,16.33
2017-10-13T05:55:06.089Z,26.73
2017-10-13T05:57:35.106Z,19.57
2017-10-13T06:00:03.390Z,21.80
2017-10-13T06:02:31.637Z,22.87
2017-10-13T06:05:00.661Z,16.27
2017-10-13T06:07:29.362Z,18.83
2017-10-13T06:09:57.803Z,17.40
2017-10-13T06:12:26.824Z,16.47
2017-10-13T06:14:55.109Z,17.63
2017-10-13T06:17:23.369Z,20.80
2017-10-13T06:19:51.639Z,20.80
2017-10-13T06:22:19.907Z,21.43
2017-10-13T06:24:48.917Z,21.30
2017-10-13T06:27:17.170Z,17.93
2017-10-13T06:29:46.618Z,16.30
2017-10-13T06:32:14.874Z,16.03
2017-10-13T06:34:43.130Z,25.60
2017-10-13T06:37:11.413Z,15.50
2017-10-13T06:39:40.422Z,14.83
2017-10-13T06:42:08.677Z,14.13
2017-10-13T06:44:37.726Z,17.67
2017-10-13T06:47:05.973Z,12.50
2017-10-13T06:49:34.226Z,24.20
2017-10-13T06:52:02.662Z,13.73
2017-10-13T06:54:30.916Z,17.60
2017-10-13T06:56:59.158Z,11.23
2017-10-13T06:59:28.199Z,22.33
2017-10-13T07:01:56.445Z,11.17
2017-10-13T07:04:24.698Z,19.37
2017-10-13T07:06:53.734Z,9.17
2017-10-13T07:09:21.974Z,15.20
2017-10-13T07:11:51.319Z,9.40
2017-10-13T07:14:19.896Z,13.43
2017-10-13T07:16:48.138Z,10.53
2017-10-13T07:19:16.398Z,10.67
2017-10-13T07:21:44.679Z,12.80
2017-10-13T07:24:13.690Z,12.30
2017-10-13T07:26:42.706Z,11.20
2017-10-13T07:29:10.979Z,10.40
2017-10-13T07:31:39.286Z,12.03
2017-10-13T07:34:07.509Z,15.93
2017-10-13T07:36:36.850Z,12.37
2017-10-13T07:39:05.099Z,9.10
2017-10-13T07:41:33.349Z,14.83
2017-10-13T07:44:01.634Z,13.30
2017-10-13T07:46:30.642Z,15.17
2017-10-13T07:48:58.887Z,9.20
2017-10-13T07:51:27.154Z,16.93
2017-10-13T07:53:55.400Z,10.93
2017-10-13T07:56:23.644Z,9.70
2017-10-13T07:58:51.964Z,13.47
2017-10-13T08:01:20.210Z,14.50
2017-10-13T08:03:48.455Z,9.80
2017-10-13T08:06:16.732Z,10.83
2017-10-13T08:08:45.737Z,8.57
2017-10-13T08:11:14.750Z,9.57
2017-10-13T08:13:43.043Z,7.07
2017-10-13T08:16:11.282Z,10.37
2017-10-13T08:18:39.530Z,8.30
2017-10-13T08:21:07.874Z,7.50
2017-10-13T08:23:36.121Z,10.07
2017-10-13T08:26:04.362Z,8.30
2017-10-13T08:28:32.628Z,10.57
2017-10-13T08:31:00.870Z,14.40
2017-10-13T08:33:29.113Z,7.63
2017-10-13T08:35:58.150Z,7.10
2017-10-13T08:38:26.394Z,8.90
2017-10-13T08:40:54.634Z,14.23
2017-10-13T08:43:23.394Z,9.50
2017-10-13T08:45:51.630Z,7.53
2017-10-13T08:48:19.874Z,11.47
2017-10-13T08:50:48.145Z,7.23
2017-10-13T08:53:16.378Z,8.70
2017-10-13T08:55:44.630Z,11.53
2017-10-13T08:58:13.655Z,8.47
2017-10-13T09:00:41.899Z,6.30
2017-10-13T09:03:10.913Z,14.10
2017-10-13T09:05:39.393Z,5.70
2017-10-13T09:08:07.639Z,13.07
2017-10-13T09:10:35.889Z,6.10
2017-10-13T09:13:04.152Z,7.80
2017-10-13T09:15:32.885Z,7.80
2017-10-13T09:18:01.891Z,4.77
2017-10-13T09:20:30.919Z,4.57
2017-10-13T09:23:04.747Z,6.83
2017-10-13T09:25:33.217Z,5.13
2017-10-13T09:28:01.448Z,4.80
2017-10-13T09:30:30.482Z,6.60
2017-10-13T09:32:58.746Z,4.23
2017-10-13T09:35:26.992Z,4.03
2017-10-13T09:37:55.369Z,6.23
2017-10-13T09:40:23.638Z,5.97
2017-10-13T09:42:51.881Z,3.70
2017-10-13T09:45:20.122Z,3.77
2017-10-13T09:47:48.710Z,4.03
2017-10-13T09:50:16.955Z,11.23
2017-10-13T09:52:45.195Z,3.20
2017-10-13T09:55:13.454Z,7.67
2017-10-13T09:57:41.693Z,6.43
2017-10-13T10:00:09.942Z,6.73
2017-10-13T10:02:38.213Z,6.87
2017-10-13T10:05:06.461Z,5.40
2017-10-13T10:07:35.022Z,5.07
2017-10-13T10:10:03.418Z,3.87
2017-10-13T10:12:31.662Z,3.43
2017-10-13T10:14:59.898Z,3.23
2017-10-13T10:17:28.538Z,5.97
2017-10-13T10:19:56.781Z,4.17
2017-10-13T10:22:25.023Z,8.80
2017-10-13T10:24:53.286Z,7.80
2017-10-13T10:27:21.686Z,6.83
2017-10-13T10:29:49.926Z,4.03
2017-10-13T10:32:18.263Z,7.57
2017-10-13T10:34:46.513Z,5.27
2017-10-13T10:37:14.753Z,10.47
2017-10-13T10:39:43.043Z,7.10
2017-10-13T10:42:11.278Z,4.50
2017-10-13T10:44:40.290Z,7.83
2017-10-13T10:47:08.550Z,3.80
2017-10-13T10:49:36.792Z,7.03
2017-10-13T10:52:05.044Z,5.17
2017-10-13T10:54:33.358Z,3.67
2017-10-13T10:57:01.602Z,7.17
2017-10-13T10:59:29.948Z,14.07
2017-10-13T11:02:01.397Z,31.93
2017-10-13T11:04:30.676Z,7.53
2017-10-13T11:06:59.163Z,3.60
2017-10-13T11:09:27.426Z,8.23
2017-10-13T11:11:55.685Z,5.10
2017-10-13T11:14:23.914Z,3.80
2017-10-13T11:16:52.431Z,3.70
2017-10-13T11:19:23.075Z,3.20
2017-10-13T11:21:51.454Z,5.37
2017-10-13T11:24:20.140Z,4.40
2017-10-13T11:26:48.378Z,7.20
2017-10-13T11:29:16.626Z,4.27
2017-10-13T11:31:45.125Z,8.00
2017-10-13T11:34:14.141Z,5.37
2017-10-13T11:36:42.393Z,2.60
2017-10-13T11:39:10.727Z,8.67
2017-10-13T11:41:38.971Z,5.97
2017-10-13T11:44:07.214Z,5.33
2017-10-13T11:46:35.480Z,3.10
2017-10-13T11:49:03.723Z,2.77
2017-10-13T11:51:31.965Z,6.23
2017-10-13T11:54:00.238Z,2.83
2017-10-13T11:56:28.494Z,12.50
2017-10-13T11:58:56.836Z,5.43
2017-10-13T12:01:25.246Z,3.40
2017-10-13T12:03:54.261Z,2.70
2017-10-13T12:06:22.507Z,2.77
2017-10-13T12:08:50.771Z,8.23
2017-10-13T12:11:19.103Z,6.63
2017-10-13T12:13:47.490Z,7.03
2017-10-13T12:16:15.939Z,5.70
2017-10-13T12:18:45.550Z,5.97
2017-10-13T12:21:14.574Z,8.70
2017-10-13T12:23:42.899Z,6.67
2017-10-13T12:26:11.134Z,6.27
2017-10-13T12:28:39.394Z,4.33
2017-10-13T12:31:07.653Z,5.93
2017-10-13T12:33:35.944Z,5.43
2017-10-13T12:36:04.368Z,4.33
2017-10-13T12:38:32.622Z,6.23
2017-10-13T12:41:00.862Z,4.50
2017-10-13T12:43:29.114Z,5.77
2017-10-13T12:45:57.445Z,2.93
2017-10-13T12:48:25.686Z,11.03
2017-10-13T12:50:53.938Z,8.50
2017-10-13T12:53:22.210Z,5.10
2017-10-13T12:55:50.455Z,3.20
2017-10-13T12:58:19.496Z,4.80
2017-10-13T13:00:47.759Z,4.00
2017-10-13T13:03:16.002Z,2.80
2017-10-13T13:05:44.254Z,2.90
2017-10-13T13:08:12.877Z,9.07
2017-10-13T13:10:41.173Z,5.80
2017-10-13T13:13:10.490Z,8.00
2017-10-13T13:15:39.082Z,6.93
2017-10-13T13:18:07.730Z,6.77
2017-10-13T13:20:35.974Z,6.90
2017-10-13T13:23:04.238Z,7.90
2017-10-13T13:25:32.479Z,9.40
2017-10-13T13:28:00.725Z,7.90
2017-10-13T13:30:29.055Z,5.27
2017-10-13T13:32:57.298Z,8.50
2017-10-13T13:35:25.571Z,8.00
2017-10-13T13:37:53.814Z,5.97
2017-10-13T13:40:22.061Z,8.30
2017-10-13T13:42:51.077Z,4.63
2017-10-13T13:45:19.360Z,3.60
2017-10-13T13:47:47.602Z,4.00
2017-10-13T13:50:15.854Z,5.47
2017-10-13T13:52:44.369Z,6.10
2017-10-13T13:55:12.610Z,3.33
2017-10-13T13:57:40.862Z,4.03
2017-10-13T14:00:09.122Z,4.73
2017-10-13T14:02:37.362Z,7.17
2017-10-13T14:05:05.607Z,4.37
2017-10-13T14:07:33.882Z,2.00
2017-10-13T14:10:02.121Z,7.23
2017-10-13T14:12:30.366Z,3.67
2017-10-13T14:14:58.931Z,4.03
2017-10-13T14:17:27.164Z,3.10
2017-10-13T14:19:55.495Z,4.63
2017-10-13T14:22:23.952Z,4.73
2017-10-13T14:24:53.155Z,5.33
2017-10-13T14:27:21.394Z,4.63
2017-10-13T14:29:49.668Z,4.20
2017-10-13T14:32:17.910Z,3.20
2017-10-13T14:34:46.932Z,3.73
2017-10-13T14:37:15.741Z,3.07
2017-10-13T14:39:43.977Z,2.83
2017-10-13T14:42:12.216Z,2.77
2017-10-13T14:44:40.479Z,5.37
2017-10-13T14:47:08.727Z,2.53
2017-10-13T14:49:36.982Z,9.00
2017-10-13T14:52:06.020Z,6.93
2017-10-13T14:54:34.254Z,4.27
2017-10-13T14:57:02.491Z,6.77
2017-10-13T14:59:30.902Z,3.27
2017-10-13T15:01:59.919Z,3.10
2017-10-13T15:04:28.163Z,4.10
2017-10-13T15:06:56.441Z,11.00
2017-10-13T15:09:24.694Z,5.40
2017-10-13T15:11:52.947Z,3.63
2017-10-13T15:14:21.217Z,3.80
2017-10-13T15:16:49.462Z,3.50
2017-10-13T15:19:18.478Z,5.23
2017-10-13T15:21:46.841Z,3.60
2017-10-13T15:24:15.891Z,3.57
2017-10-13T15:26:44.113Z,4.77
2017-10-13T15:29:19.147Z,2.87
2017-10-13T15:31:54.084Z,10.00
2017-10-13T15:34:28.150Z,4.27
2017-10-13T15:36:56.946Z,4.20
2017-10-13T15:39:31.544Z,5.67
2017-10-13T15:42:06.633Z,2.90
2017-10-13T15:44:39.709Z,6.80
2017-10-13T15:47:14.006Z,3.00
2017-10-13T15:49:48.399Z,2.83
2017-10-13T15:52:23.767Z,2.43
2017-10-13T15:54:54.188Z,5.70
2017-10-13T15:57:24.552Z,5.80
2017-10-13T15:59:53.011Z,6.20
2017-10-13T16:02:21.414Z,6.03
2017-10-13T16:04:50.426Z,3.70
2017-10-13T16:07:18.696Z,5.37
2017-10-13T16:09:47.177Z,21.03
2017-10-13T16:12:17.667Z,8.90
2017-10-13T16:14:46.042Z,12.53
2017-10-13T16:17:14.629Z,6.60
2017-10-13T16:19:42.856Z,3.83
2017-10-13T16:22:11.094Z,7.13
2017-10-13T16:24:39.468Z,7.43
2017-10-13T16:27:07.707Z,5.77
2017-10-13T16:29:35.945Z,13.77
2017-10-13T16:32:04.214Z,7.13
2017-10-13T16:34:32.460Z,7.03
2017-10-13T16:37:00.706Z,9.97
2017-10-13T16:39:29.059Z,4.03
2017-10-13T16:41:58.070Z,11.60
2017-10-13T16:44:26.332Z,4.97
2017-10-13T16:46:55.361Z,11.23
2017-10-13T16:49:23.603Z,6.97
2017-10-13T16:51:52.043Z,5.67
2017-10-13T16:54:20.314Z,4.37
2017-10-13T16:56:49.919Z,6.87
2017-10-13T16:59:18.146Z,10.50
2017-10-13T17:01:46.527Z,5.03
2017-10-13T17:04:14.780Z,3.83
2017-10-13T17:06:43.034Z,8.63
2017-10-13T17:09:11.337Z,14.90
2017-10-13T17:11:39.583Z,7.73
2017-10-13T17:14:07.827Z,4.90
2017-10-13T17:16:36.101Z,4.20
2017-10-13T17:19:04.350Z,6.07
2017-10-13T17:21:33.354Z,7.07
2017-10-13T17:24:01.698Z,8.10
2017-10-13T17:26:29.942Z,7.40
2017-10-13T17:28:58.188Z,11.47
2017-10-13T17:31:26.459Z,6.17
2017-10-13T17:33:55.475Z,6.47
2017-10-13T17:36:23.718Z,12.83
2017-10-13T17:38:53.170Z,7.27
2017-10-13T17:41:21.474Z,8.90
2017-10-13T17:43:49.878Z,5.67
2017-10-13T17:46:19.189Z,8.37
2017-10-13T17:48:48.205Z,7.77
2017-10-13T17:51:16.459Z,14.97
2017-10-13T17:53:44.729Z,14.03
2017-10-13T17:56:13.173Z,8.10
2017-10-13T17:58:41.399Z,7.33
2017-10-13T18:01:09.669Z,7.80
2017-10-13T18:03:37.910Z,10.10
2017-10-13T18:06:06.192Z,20.03
2017-10-13T18:08:34.958Z,6.67
2017-10-13T18:11:04.179Z,16.47
2017-10-13T18:13:32.561Z,6.80
2017-10-13T18:16:00.946Z,7.50
2017-10-13T18:18:29.314Z,9.00
2017-10-13T18:20:57.702Z,9.13
2017-10-13T18:23:26.094Z,10.53
2017-10-13T18:25:55.062Z,11.40
2017-10-13T18:28:23.314Z,13.10
2017-10-13T18:30:51.643Z,14.97
2017-10-13T18:33:19.886Z,9.73
2017-10-13T18:35:48.133Z,10.73
2017-10-13T18:38:16.434Z,10.60
2017-10-13T18:40:44.669Z,12.53
2017-10-13T18:43:13.108Z,10.03
2017-10-13T18:45:41.457Z,9.20
2017-10-13T18:48:09.867Z,12.93
2017-10-13T18:50:39.126Z,19.17
2017-10-13T18:53:12.669Z,10.53
2017-10-13T18:55:40.909Z,10.43
2017-10-13T18:58:10.149Z,10.53
2017-10-13T19:00:38.422Z,9.70
2017-10-13T19:03:06.910Z,19.83
2017-10-13T19:05:35.272Z,15.13
2017-10-13T19:08:03.673Z,12.70
2017-10-13T19:10:36.646Z,11.30
2017-10-13T19:13:05.110Z,10.13
2017-10-13T19:15:33.400Z,9.07
2017-10-13T19:18:01.896Z,13.33
2017-10-13T19:20:30.254Z,16.87
2017-10-13T19:23:00.679Z,11.13
2017-10-13T19:25:29.098Z,15.53
2017-10-13T19:27:58.406Z,20.63
2017-10-13T19:30:26.763Z,14.40
2017-10-13T19:32:55.139Z,15.60
2017-10-13T19:35:24.148Z,12.13
2017-10-13T19:37:53.541Z,11.10
2017-10-13T19:40:22.743Z,15.87
2017-10-13T19:42:51.840Z,18.93
2017-10-13T19:45:20.102Z,17.73
2017-10-13T19:47:48.470Z,12.23
2017-10-13T19:50:16.767Z,10.20
2017-10-13T19:52:45.890Z,12.80
2017-10-13T19:55:14.277Z,12.53
2017-10-13T19:57:42.624Z,20.63
2017-10-13T20:00:10.920Z,15.17
2017-10-13T20:02:39.182Z,14.60
2017-10-13T20:05:09.677Z,11.20
2017-10-13T20:07:37.940Z,9.93
2017-10-13T20:10:06.182Z,10.77
2017-10-13T20:12:35.677Z,10.07
2017-10-13T20:15:04.707Z,14.00
2017-10-13T20:17:32.951Z,14.13
2017-10-13T20:20:01.281Z,16.87
2017-10-13T20:22:30.302Z,16.33
2017-10-13T20:24:58.553Z,11.30
2017-10-13T20:27:26.829Z,12.83
2017-10-13T20:29:55.417Z,11.80
2017-10-13T20:32:23.655Z,9.43
2017-10-13T20:34:51.930Z,10.33
2017-10-13T20:37:21.026Z,9.50
2017-10-13T20:39:49.270Z,11.73
2017-10-13T20:42:18.502Z,15.20
2017-10-13T20:44:46.745Z,15.50
2017-10-13T20:47:15.771Z,8.60
2017-10-13T20:49:44.062Z,8.73
2017-10-13T20:52:13.071Z,8.43
2017-10-13T20:54:41.486Z,7.83
2017-10-13T20:57:09.759Z,10.53
2017-10-13T20:59:38.015Z,20.90
2017-10-13T21:02:06.242Z,9.37
2017-10-13T21:04:34.752Z,8.70
2017-10-13T21:07:02.997Z,12.57
2017-10-13T21:09:31.243Z,10.47
2017-10-13T21:11:59.512Z,13.60
2017-10-13T21:14:27.757Z,7.70
2017-10-13T21:16:56.007Z,10.50
2017-10-13T21:19:24.274Z,15.83
2017-10-13T21:21:52.526Z,11.67
2017-10-13T21:24:20.777Z,15.23
2017-10-13T21:26:49.546Z,11.97
2017-10-13T21:29:17.790Z,8.53
2017-10-13T21:31:46.346Z,9.57
2017-10-13T21:34:14.610Z,7.37
2017-10-13T21:36:42.849Z,12.93
2017-10-13T21:39:11.094Z,14.30
2017-10-13T21:41:40.130Z,11.33
2017-10-13T21:44:08.374Z,11.17
2017-10-13T21:46:36.627Z,18.50
2017-10-13T21:49:05.271Z,12.90
2017-10-13T21:51:33.527Z,11.67
2017-10-13T21:54:01.774Z,15.97
2017-10-13T21:56:30.051Z,13.03
2017-10-13T21:58:59.070Z,9.70
2017-10-13T22:01:27.319Z,14.90
2017-10-13T22:03:56.414Z,13.07
2017-10-13T22:06:25.458Z,11.23
2017-10-13T22:08:53.708Z,8.27
2017-10-13T22:11:22.019Z,22.80
2017-10-13T22:13:50.266Z,10.50
2017-10-13T22:16:20.032Z,12.50
2017-10-13T22:18:48.298Z,10.93
2017-10-13T22:21:16.542Z,11.10
2017-10-13T22:23:44.791Z,12.90
2017-10-13T22:26:13.827Z,17.33
2017-10-13T22:28:42.076Z,19.03
2017-10-13T22:31:10.318Z,6.80
2017-10-13T22:33:39.472Z,8.67
2017-10-13T22:36:07.715Z,15.23
2017-10-13T22:38:35.968Z,15.03
2017-10-13T22:41:04.234Z,11.53
2017-10-13T22:43:32.481Z,9.60
2017-10-13T22:46:00.718Z,16.23
2017-10-13T22:48:28.985Z,15.00
2017-10-13T22:50:57.999Z,13.93
2017-10-13T22:53:26.254Z,10.13
2017-10-13T22:55:54.690Z,12.50
2017-10-13T22:58:22.940Z,9.53
2017-10-13T23:00:51.254Z,11.30
2017-10-13T23:03:19.640Z,10.43
2017-10-13T23:05:47.885Z,9.30
2017-10-13T23:08:16.126Z,10.77
2017-10-13T23:10:44.398Z,10.00
2017-10-13T23:13:13.418Z,18.63
2017-10-13T23:15:41.663Z,15.40
2017-10-13T23:18:10.005Z,13.30
2017-10-13T23:20:38.246Z,14.90
2017-10-13T23:23:06.494Z,16.57
2017-10-13T23:25:34.770Z,16.40
2017-10-13T23:28:03.790Z,11.80
2017-10-13T23:30:32.047Z,19.70
2017-10-13T23:33:01.067Z,7.30
2017-10-13T23:35:29.518Z,9.43
2017-10-13T23:37:58.529Z,15.50
2017-10-13T23:40:27.367Z,18.33
2017-10-13T23:42:55.598Z,13.30
2017-10-13T23:45:23.853Z,11.60
2017-10-13T23:47:52.114Z,11.97
2017-10-13T23:50:20.366Z,17.17
2017-10-13T23:52:48.610Z,10.17
2017-10-13T23:55:16.882Z,15.53
2017-10-13T23:57:45.122Z,13.00
